Map

Track Data

SID SEASON NUMBER BASIN SUBBASIN NAME ISO_TIME NATURE LAT LON WMO_WIND WMO_PRES WMO_AGENCY TRACK_TYPE DIST2LAND LANDFALL IFLAG USA_AGENCY USA_ATCF_ID USA_LAT USA_LON USA_RECORD USA_STATUS USA_WIND USA_PRES USA_SSHS USA_R34_NE USA_R34_SE USA_R34_SW USA_R34_NW USA_R50_NE USA_R50_SE USA_R50_SW USA_R50_NW USA_R64_NE USA_R64_SE USA_R64_SW USA_R64_NW USA_POCI USA_ROCI USA_RMW USA_EYE TOKYO_LAT TOKYO_LON TOKYO_GRADE TOKYO_WIND TOKYO_PRES TOKYO_R50_DIR TOKYO_R50_LONG TOKYO_R50_SHORT TOKYO_R30_DIR TOKYO_R30_LONG TOKYO_R30_SHORT TOKYO_LAND CMA_LAT CMA_LON CMA_CAT CMA_WIND CMA_PRES HKO_LAT HKO_LON HKO_CAT HKO_WIND HKO_PRES NEWDELHI_LAT NEWDELHI_LON NEWDELHI_GRADE NEWDELHI_WIND NEWDELHI_PRES NEWDELHI_CI NEWDELHI_DP NEWDELHI_POCI REUNION_LAT REUNION_LON REUNION_TYPE REUNION_WIND REUNION_PRES REUNION_TNUM REUNION_CI REUNION_RMW REUNION_R34_NE REUNION_R34_SE REUNION_R34_SW REUNION_R34_NW REUNION_R50_NE REUNION_R50_SE REUNION_R50_SW REUNION_R50_NW REUNION_R64_NE REUNION_R64_SE REUNION_R64_SW REUNION_R64_NW BOM_LAT BOM_LON BOM_TYPE BOM_WIND BOM_PRES BOM_TNUM BOM_CI BOM_RMW BOM_R34_NE BOM_R34_SE BOM_R34_SW BOM_R34_NW BOM_R50_NE BOM_R50_SE BOM_R50_SW BOM_R50_NW BOM_R64_NE BOM_R64_SE BOM_R64_SW BOM_R64_NW BOM_ROCI BOM_POCI BOM_EYE BOM_POS_METHOD BOM_PRES_METHOD NADI_LAT NADI_LON NADI_CAT NADI_WIND NADI_PRES WELLINGTON_LAT WELLINGTON_LON WELLINGTON_WIND WELLINGTON_PRES DS824_LAT DS824_LON DS824_STAGE DS824_WIND DS824_PRES TD9636_LAT TD9636_LON TD9636_STAGE TD9636_WIND TD9636_PRES TD9635_LAT TD9635_LON TD9635_WIND TD9635_PRES TD9635_ROCI NEUMANN_LAT NEUMANN_LON NEUMANN_CLASS NEUMANN_WIND NEUMANN_PRES MLC_LAT MLC_LON MLC_CLASS MLC_WIND MLC_PRES USA_GUST BOM_GUST BOM_GUST_PER REUNION_GUST REUNION_GUST_PER USA_SEAHGT USA_SEARAD_NE USA_SEARAD_SE USA_SEARAD_SW USA_SEARAD_NW STORM_SPEED STORM_DIR
1966354S13089 1967 120 SI MM CLARA:ELISA 1966-12-19 16:00:00 NR -13.0000 89.0000 main 1671 1671 __________O___ -1 -13.0000 89.0000 1 0 0
1966354S13089 1967 120 SI MM CLARA:ELISA 1966-12-19 18:00:00 TS -12.9972 88.9994 main 1671 1671 O________OP_O_ jtwc_sh SH061967 -13.0000 89.0000 20 -1 -13.0000 89.0000 TC 20 -12.9929 88.9984 1 -13.0000 89.0000 TC 20 0 0
1966354S13089 1967 120 SI MM CLARA:ELISA 1966-12-19 21:00:00 TS -12.9854 89.0101 main 1671 1671 P________PP_P_ SH061967 -12.9825 89.0200 20 -1 -12.9825 89.0200 TC 20 -12.9912 88.9904 1 -12.9825 89.0200 TC 20 0 0
1966354S13089 1967 120 SI MM CLARA:ELISA 1966-12-20 00:00:00 TS -13.0038 88.9901 main 1671 1671 O________OP_O_ jtwc_sh SH061967 -13.0000 89.0000 20 -1 -13.0000 89.0000 TC 20 -13.0123 88.9678 1 -13.0000 89.0000 TC 20 1 224
1966354S13089 1967 120 SI MM CLARA:ELISA 1966-12-20 03:00:00 TS -13.0757 88.9167 main 1686 1686 P________PP_P_ SH061967 -13.0775 88.9150 20 -1 -13.0775 88.9150 TC 20 -13.0702 88.9220 1 -13.0775 88.9150 TC 22 2 224
1966354S13089 1967 120 SI MM CLARA:ELISA 1966-12-20 04:00:00 TS -13.1109 88.8831 main 1686 1686 P________PO_P_ SH061967 -13.1146 88.8775 20 -1 -13.1146 88.8775 TC 20 -13.1000 88.9000 1 20 -13.1146 88.8775 TC 23 3 222
1966354S13089 1967 120 SI MM CLARA:ELISA 1966-12-20 06:00:00 TS -13.1942 88.8112 main 1702 1702 O________OP_O_ jtwc_sh SH061967 -13.2000 88.8000 20 -1 -13.2000 88.8000 TC 20 -13.1767 88.8448 1 20 -13.2000 88.8000 TC 25 3 216
1966354S13089 1967 120 SI MM CLARA:ELISA 1966-12-20 09:00:00 TS -13.3377 88.7148 main 1717 1717 P________PP_P_ SH061967 -13.3425 88.7075 17 -1 -13.3425 88.7075 TC 17 -13.3234 88.7369 1 20 -13.3425 88.7075 TC 27 4 214
1966354S13089 1967 120 SI MM CLARA:ELISA 1966-12-20 12:00:00 TS -13.4972 88.6011 main 1741 1741 O________OP_O_ jtwc_sh SH061967 -13.5000 88.6000 15 -1 -13.5000 88.6000 TC 15 -13.4886 88.6043 1 20 -13.5000 88.6000 TC 30 1000 4 218
1966354S13089 1967 120 SI MM CLARA:ELISA 1966-12-20 15:00:00 TS -13.6558 88.4565 main 1765 1772 P________PP_P_ SH061967 -13.6575 88.4575 12 -1 -13.6575 88.4575 TC 12 -13.6505 88.4533 1 20 -13.6575 88.4575 TC 30 999 4 222
1966354S13089 1967 120 SI MM CLARA:ELISA 1966-12-20 16:00:00 TS -13.7059 88.4041 main 1772 1772 P________PO_P_ SH061967 -13.7079 88.4054 11 -1 -13.7079 88.4054 TC 11 -13.7000 88.4000 1 20 -13.7079 88.4054 TC 30 999 4 228
1966354S13089 1967 120 SI MM CLARA:ELISA 1966-12-20 18:00:00 TS -13.7939 88.3006 main 1788 1788 O________OP_O_ jtwc_sh SH061967 -13.8000 88.3000 10 -1 -13.8000 88.3000 TC 10 -13.7754 88.3025 1 -13.8000 88.3000 TC 30 999 4 231
1966354S13089 1967 120 SI MM CLARA:ELISA 1966-12-20 21:00:00 TS -13.8996 88.1597 main 1803 1803 P________PP_P_ SH061967 -13.9075 88.1650 10 -1 -13.9075 88.1650 TC 10 -13.8759 88.1439 1 -13.9075 88.1650 TC 30 999 4 236
1966354S13089 1967 120 SI MM CLARA:ELISA 1966-12-21 00:00:00 TS -13.9924 87.9919 main 1826 1826 O________OP_O_ jtwc_sh SH061967 -14.0000 88.0000 10 -1 -14.0000 88.0000 TC 10 -13.9695 87.9677 1 -14.0000 88.0000 TC 30 999 4 243
1966354S13089 1967 120 SI MM CLARA:ELISA 1966-12-21 03:00:00 TS -14.0914 87.7664 main 1849 1849 P________PP_P_ SH061967 -14.1000 87.7650 10 -1 -14.1000 87.7650 TC 10 -14.0657 87.7708 1 -14.1000 87.7650 TC 32 998 5 246
1966354S13089 1967 120 SI MM CLARA:ELISA 1966-12-21 04:00:00 TS -14.1250 87.6831 main 1856 1856 P________PO_P_ SH061967 -14.1333 87.6775 10 -1 -14.1333 87.6775 TC 10 -14.1000 87.7000 1 -14.1333 87.6775 TC 33 998 5 248
1966354S13089 1967 120 SI MM CLARA:ELISA 1966-12-21 06:00:00 TS -14.1938 87.5120 main 1879 1879 O________OP_O_ jtwc_sh SH061967 -14.2000 87.5000 10 -1 -14.2000 87.5000 TC 10 -14.1750 87.5478 1 -14.2000 87.5000 TC 35 998 5 248
1966354S13089 1967 120 SI MM CLARA:ELISA 1966-12-21 09:00:00 TS -14.2928 87.2626 main 1902 1909 P________PP_P_ SH061967 -14.2925 87.2500 12 -1 -14.2925 87.2500 TC 12 -14.2938 87.3006 1 -14.2925 87.2500 TC 35 997 5 247
1966354S13089 1967 120 SI MM CLARA:ELISA 1966-12-21 12:00:00 TS -14.4050 87.0104 main 1932 1932 O________OP_O_ jtwc_sh SH061967 -14.4000 87.0000 15 -1 -14.4000 87.0000 TC 15 -14.4201 87.0417 1 -14.4000 87.0000 TC 35 997 6 243
1966354S13089 1967 120 SI MM CLARA:ELISA 1966-12-21 15:00:00 TS -14.5453 86.7528 main 1955 1971 P________PP_P_ SH061967 -14.5425 86.7425 17 -1 -14.5425 86.7425 TC 17 -14.5538 86.7837 1 -14.5425 86.7425 TC 35 997 6 240
1966354S13089 1967 120 SI MM CLARA:ELISA 1966-12-21 16:00:00 TS -14.5959 86.6691 main 1971 1955 P________PO_P_ SH061967 -14.5946 86.6588 18 -1 -14.5946 86.6588 TC 18 -14.6000 86.7000 1 10 -14.5946 86.6588 TC 35 997 4 346
1966354S13089 1967 120 SI MM CLARA:ELISA 1966-12-21 18:00:00 TS -14.3694 86.7099 main 1955 1947 O________OP_O_ jtwc_sh SH061967 -14.7000 86.5000 20 -1 -14.7000 86.5000 TC 20 -14.6968 86.5495 1 -14.7000 86.5000 TC 35 997 3 353
1966354S13089 1967 120 SI MM CLARA:ELISA 1966-12-21 21:00:00 TS -14.3637 86.6354 main 1962 1962 P________PP_P_ SH061967 -14.8499 86.2999 22 -1 -14.8499 86.2999 TC 22 -14.8484 86.3302 1 -14.8499 86.2999 TC 35 997 2 247
1966354S13089 1967 120 SI MM CLARA:ELISA 1966-12-22 00:00:00 TS -14.4454 86.5266 main 1970 1978 O________OP_O_ jtwc_sh SH061967 -15.0000 86.1000 25 -1 -15.0000 86.1000 TC 25 -15.0023 86.1103 1 -15.0000 86.1000 TC 35 997 3 231
1966354S13089 1967 120 SI MM CLARA:ELISA 1966-12-22 03:00:00 TS -14.5607 86.3874 main 1993 1993 P________PP_P_ SH061967 -15.1575 85.8575 27 -1 -15.1575 85.8575 TC 27 -15.1521 85.8804 1 -15.1575 85.8575 TC 35 996 4 229
1966354S13089 1967 120 SI MM CLARA:ELISA 1966-12-22 04:00:00 TS -14.6221 86.3177 main 2001 2001 P________PO_P_ SH061967 -15.2079 85.7721 28 -1 -15.2079 85.7721 TC 28 -15.2000 85.8000 1 -15.2079 85.7721 TC 35 996 5 230
1966354S13089 1967 120 SI MM CLARA:ELISA 1966-12-22 06:00:00 TS -14.7302 86.1807 main 2017 2017 O________OP_O_ jtwc_sh SH061967 -15.3000 85.6000 30 -1 -15.3000 85.6000 TC 30 -15.2916 85.6307 1 -15.3000 85.6000 TC 35 996 5 234
1966354S13089 1967 120 SI MM CLARA:ELISA 1966-12-22 09:00:00 TS -14.8514 85.9866 main 2048 2048 P________PP_P_ SH061967 -15.3999 85.3574 32 -1 -15.3999 85.3574 TC 32 -15.4228 85.3641 1 -15.3999 85.3574 TC 37 995 4 239
1966354S13089 1967 120 SI MM CLARA:ELISA 1966-12-22 12:00:00 TS -14.9530 85.7938 main 2071 2071 O________OP_O_ jtwc_sh SH061967 -15.5000 85.1000 35 0 -15.5000 85.1000 TC 35 -15.5466 85.0853 1 -15.5000 85.1000 TC 40 994 4 241
1966354S13089 1967 120 SI MM CLARA:ELISA 1966-12-22 15:00:00 TS -15.0538 85.6108 main 2094 2094 P________PP_P_ SH061967 -15.6500 84.8000 37 0 -15.6500 84.8000 TC 37 -15.6629 84.7974 1 -15.6500 84.8000 TC 40 993 4 241
1966354S13089 1967 120 SI MM CLARA:ELISA 1966-12-22 16:00:00 TS -15.0744 85.5658 main 2094 2094 P________PO_P_ SH061967 -15.7025 84.6976 38 0 -15.7025 84.6976 TC 38 -15.7000 84.7000 1 30 -15.7025 84.6976 TC 40 993 3 242
1966354S13089 1967 120 SI MM CLARA:ELISA 1966-12-22 18:00:00 TS -15.1337 85.4588 main 2102 2102 O________OP_O_ jtwc_sh SH061967 -15.8000 84.5000 40 0 -15.8000 84.5000 TC 40 -15.7694 84.5265 1 31 -15.8000 84.5000 TC 40 993 3 238
1966354S13089 1967 120 SI MM CLARA:ELISA 1966-12-22 21:00:00 TS -15.2253 85.3170 main 2125 2125 P________PP_P_ SH061967 -15.9074 84.2649 35 0 -15.9074 84.2649 TC 35 -15.8674 84.2604 1 34 -15.9074 84.2649 TC 42 992 4 239
1966354S13089 1967 120 SI MM CLARA:ELISA 1966-12-23 00:00:00 TS -15.3411 85.0953 main 2148 2148 O________OP_O_ jtwc_sh SH061967 -16.0000 84.0000 30 -1 -16.0000 84.0000 TC 30 -15.9635 83.9682 1 36 -16.0000 84.0000 TC 45 991 6 246
1966354S13089 1967 120 SI MM CLARA:ELISA 1966-12-23 03:00:00 TS -15.4554 84.7748 main 2187 2187 P________PP_P_ SH061967 -16.0999 83.6375 27 -1 -16.0999 83.6375 TC 27 -16.0643 83.6279 1 39 -16.0999 83.6375 TC 45 991 7 250
1966354S13089 1967 120 SI MM CLARA:ELISA 1966-12-23 04:00:00 TS -15.4978 84.6464 main 2202 2202 P________PO_P_ SH061967 -16.1333 83.4987 26 -1 -16.1333 83.4987 TC 26 -16.1000 83.5000 2 40 -16.1333 83.4987 TC 45 991 9 251
1966354S13089 1967 120 SI MM CLARA:ELISA 1966-12-23 06:00:00 TS -15.5968 84.3589 main 2226 2233 O________OP_O_ jtwc_sh SH061967 -16.2000 83.2000 25 -1 -16.2000 83.2000 TC 25 -16.1778 83.2124 2 37 -16.2000 83.2000 TC 45 991 10 249
1966354S13089 1967 120 SI MM CLARA:ELISA 1966-12-23 09:00:00 TS -15.7920 83.8676 main 2280 2288 P________PP_P_ SH061967 -16.2925 82.7149 25 -1 -16.2925 82.7149 TC 25 -16.3006 82.7304 2 33 -16.2925 82.7149 TC 45 990 11 247
1966354S13089 1967 120 SI MM CLARA:ELISA 1966-12-23 12:00:00 TS -16.0184 83.3228 main 2343 2343 O________OP_O_ jtwc_sh SH061967 -16.4000 82.2000 25 -1 -16.4000 82.2000 TC 25 -16.4281 82.2101 2 29 -16.4000 82.2000 TC 45 990 12 246
1966354S13089 1967 120 SI MM CLARA:ELISA 1966-12-23 15:00:00 TS -16.2610 82.7718 main 2405 2413 P________PP_P_ SH061967 -16.5499 81.7000 25 -1 -16.5499 81.7000 TC 25 -16.5571 81.6765 2 26 -16.5499 81.7000 TC 45 990 12 246
1966354S13089 1967 120 SI MM CLARA:ELISA 1966-12-23 16:00:00 TS -16.3399 82.5872 main 2421 2421 P________PO_P_ SH061967 -16.6024 81.5334 25 -1 -16.6024 81.5334 TC 25 -16.6000 81.5000 1 25 -16.6024 81.5334 TC 45 990 11 247
1966354S13089 1967 120 SI MM CLARA:ELISA 1966-12-23 18:00:00 TS -16.4829 82.2238 main 2468 2468 O________OP_O_ jtwc_sh SH061967 -16.7000 81.2000 25 -1 -16.7000 81.2000 TC 25 -16.6804 81.1665 1 25 -16.7000 81.2000 TC 45 990 11 250
1966354S13089 1967 120 SI MM CLARA:ELISA 1966-12-23 21:00:00 TS -16.6421 81.6989 main 2516 2495 P________PP_P_ SH061967 -16.7999 80.6998 25 -1 -16.7999 80.6998 TC 25 -16.8012 80.6663 1 25 -16.7999 80.6998 TC 45 990 10 254
1966354S13089 1967 120 SI MM CLARA:ELISA 1966-12-24 00:00:00 TS -16.7724 81.1797 main 2495 2441 O________OP_O_ jtwc_sh SH061967 -16.9000 80.2000 25 -1 -16.9000 80.2000 TC 25 -16.9250 80.1663 1 25 -16.9000 80.2000 TC 45 990 10 255
1966354S13089 1967 120 SI MM CLARA:ELISA 1966-12-24 03:00:00 TS -16.9043 80.6588 main 2441 2420 P________PP_P_ SH061967 -17.0424 79.7000 25 -1 -17.0424 79.7000 TC 25 -17.0548 79.6665 1 25 -17.0424 79.7000 TC 45 990 10 255
1966354S13089 1967 120 SI MM CLARA:ELISA 1966-12-24 04:00:00 TS -16.9464 80.4852 main 2420 2376 P________PO_P_ SH061967 -17.0945 79.5333 25 -1 -17.0945 79.5333 TC 25 -17.1000 79.5000 1 25 -17.0945 79.5333 TC 45 990 10 256
1966354S13089 1967 120 SI MM CLARA:ELISA 1966-12-24 06:00:00 TS -17.0289 80.1366 main 2376 2322 O________OP_O_ jtwc_sh SH061967 -17.2000 79.2000 25 -1 -17.2000 79.2000 TC 25 -17.2021 79.1563 1 -17.2000 79.2000 TC 45 990 10 257
1966354S13089 1967 120 SI MM CLARA:ELISA 1966-12-24 09:00:00 TS -17.1434 79.6041 main 2322 2265 P________PP_P_ SH061967 -17.3499 78.6999 25 -1 -17.3499 78.6999 TC 25 -17.3618 78.6405 1 -17.3499 78.6999 TC 47 989 10 257
1966354S13089 1967 120 SI MM CLARA:ELISA 1966-12-24 12:00:00 TS -17.2549 79.0747 main 2265 2200 O________OP_O_ jtwc_sh SH061967 -17.5000 78.2000 25 -1 -17.5000 78.2000 TC 25 -17.5182 78.1353 1 -17.5000 78.2000 TC 50 989 10 257
1966354S13089 1967 120 SI MM CLARA:ELISA 1966-12-24 15:00:00 TS -17.3781 78.5394 main 2200 2190 P________PP_P_ SH061967 -17.6574 77.7000 25 -1 -17.6574 77.7000 TC 25 -17.6588 77.6533 1 -17.6574 77.7000 TC 50 988 10 256
1966354S13089 1967 120 SI MM CLARA:ELISA 1966-12-24 16:00:00 TS -17.4189 78.3697 main 2190 2146 P________PO_P_ SH061967 -17.7078 77.5333 25 -1 -17.7078 77.5333 TC 25 -17.7000 77.5000 7 -17.7078 77.5333 TC 50 988 10 255
1966354S13089 1967 120 SI MM CLARA:ELISA 1966-12-24 18:00:00 TS -17.5069 78.0250 main 2146 2102 O________OP_O_ jtwc_sh SH061967 -17.8000 77.2000 25 -1 -17.8000 77.2000 TC 25 -17.7749 77.1815 7 -17.8000 77.2000 TC 50 988 9 254
1966354S13089 1967 120 SI MM CLARA:ELISA 1966-12-24 21:00:00 TS -17.6249 77.5997 main 2102 2069 P________PP_P_ SH061967 -17.9226 76.6550 25 -1 -17.9226 76.6550 TC 25 -17.8687 76.7285 7 -17.9226 76.6550 TC 50 988 8 254
1966354S13089 1967 120 SI MM CLARA:ELISA 1966-12-25 00:00:00 TS -17.7200 77.2566 main 2069 2036 O________OP_O_ jtwc_sh SH061967 -18.0000 76.2000 25 -1 -18.0000 76.2000 TC 25 -17.9401 76.3246 7 -18.0000 76.2000 TC 50 988 6 255
1966354S13089 1967 120 SI MM CLARA:ELISA 1966-12-25 03:00:00 TS -17.7804 77.0032 main 2036 2036 P________PP_P_ SH061967 -18.0148 75.9399 25 -1 -18.0148 75.9399 TC 25 -17.9888 75.9915 7 -18.0148 75.9399 TC 52 987 5 256
1966354S13089 1967 120 SI MM CLARA:ELISA 1966-12-25 04:00:00 TS -17.7925 76.9401 main 2025 2015 P________PO_P_ SH061967 -18.0107 75.8849 25 -1 -18.0107 75.8849 TC 25 -18.0000 75.9000 7 -18.0107 75.8849 TC 53 986 4 260
1966354S13089 1967 120 SI MM CLARA:ELISA 1966-12-25 06:00:00 TS -17.8146 76.8067 main 2015 1982 O________OP_O_ jtwc_sh SH061967 -18.0000 75.8000 25 -1 -18.0000 75.8000 TC 25 -18.0167 75.7537 7 -18.0000 75.8000 TC 55 986 5 261
1966354S13089 1967 120 SI MM CLARA:ELISA 1966-12-25 09:00:00 TS -17.8535 76.5337 main 1982 1950 P________PP_P_ SH061967 -18.0000 75.6925 25 -1 -18.0000 75.6925 TC 25 -18.0233 75.6038 7 -18.0000 75.6925 TC 55 985 6 262
1966354S13089 1967 120 SI MM CLARA:ELISA 1966-12-25 12:00:00 TS -17.8905 76.2317 main 1950 1919 O________OP_O_ jtwc_sh SH061967 -18.0000 75.6000 25 -1 -18.0000 75.6000 TC 25 -18.0158 75.5068 7 -18.0000 75.6000 TC 55 984 6 263
1966354S13089 1967 120 SI MM CLARA:ELISA 1966-12-25 15:00:00 TS -17.9264 75.9194 main 1919 1909 P________PP_P_ SH061967 -18.0000 75.4500 25 -1 -18.0000 75.4500 TC 25 -18.0036 75.4281 7 -18.0000 75.4500 TC 57 982 6 263
1966354S13089 1967 120 SI MM CLARA:ELISA 1966-12-25 16:00:00 TS -17.9382 75.8137 main 1909 1886 P________PO_P_ SH061967 -18.0000 75.3975 25 -1 -18.0000 75.3975 TC 25 -18.0000 75.4000 7 -18.0000 75.3975 TC 58 982 6 263
1966354S13089 1967 120 SI MM CLARA:ELISA 1966-12-25 18:00:00 TS -17.9625 75.6021 main 1886 1855 O________OP_O_ jtwc_sh SH061967 -18.0000 75.3000 25 -1 -18.0000 75.3000 TC 25 -18.0000 75.3167 7 -18.0000 75.3000 TC 60 981 6 263
1966354S13089 1967 120 SI MM CLARA:ELISA 1966-12-25 21:00:00 TS -18.0006 75.3038 main 1855 1824 P________PP_P_ SH061967 -18.0000 75.2000 25 -1 -18.0000 75.2000 TC 25 -18.0000 75.1917 7 -18.0000 75.2000 TC 62 979 6 263
1966354S13089 1967 120 SI MM CLARA:ELISA 1966-12-26 00:00:00 TS -18.0341 75.0062 main 1824 1790 O________OP_O_ jtwc_sh SH061967 -18.0000 75.1000 25 -1 -18.0000 75.1000 TC 25 -18.0000 75.0667 7 -18.0000 75.1000 TC 65 977 6 264
1966354S13089 1967 120 SI MM CLARA:ELISA 1966-12-26 03:00:00 TS -18.0592 74.6865 main 1790 1780 P________PP_P_ SH061967 -18.0000 74.9500 25 -1 -18.0000 74.9500 TC 25 -18.0000 74.9417 7 -18.0000 74.9500 TC 67 975 6 266
1966354S13089 1967 120 SI MM CLARA:ELISA 1966-12-26 04:00:00 TS -18.0655 74.5827 main 1780 1761 P________PO_P_ SH061967 -18.0000 74.8975 25 -1 -18.0000 74.8975 TC 25 -18.0000 74.9000 7 -18.0000 74.8975 TC 68 975 6 275
1966354S13089 1967 120 SI MM CLARA:ELISA 1966-12-26 06:00:00 TS -18.0360 74.3818 reunion main 1761 1730 O____O___OP_O_ jtwc_sh SH061967 -18.0000 74.8000 25 -1 -16.8000 74.1000 2 9.90000 -18.0000 74.8000 TC 25 -17.9973 74.8245 7 -18.0000 74.8000 TC 70 974 5 278
1966354S13089 1967 120 SI MM CLARA:ELISA 1966-12-26 09:00:00 TS -18.0050 74.1329 main 1730 1709 P____P___PP_P_ SH061967 -18.0000 74.7000 22 -1 -16.8403 73.6675 2 -18.0000 74.7000 TC 22 -17.9933 74.7115 7 -18.0000 74.7000 TC 70 974 5 277
1966354S13089 1967 120 SI MM CLARA:ELISA 1966-12-26 12:00:00 TS -17.9789 73.9020 reunion main 1709 1689 O____O___OP_O_ jtwc_sh SH061967 -18.0000 74.6000 20 -1 -16.9000 73.3000 99 9.90000 -18.0000 74.6000 TC 20 -17.9920 74.5903 7 -18.0000 74.6000 TC 70 974 4 274
1966354S13089 1967 120 SI MM CLARA:ELISA 1966-12-26 15:00:00 TS -17.9729 73.6628 main 1689 1678 P____P___PP_P_ SH061967 -18.0000 74.4575 17 -1 -16.9923 73.0350 99 -18.0000 74.4575 TC 17 -17.9966 74.4517 7 -18.0000 74.4575 TC 70 973 4 269
1966354S13089 1967 120 SI MM CLARA:ELISA 1966-12-26 16:00:00 TS -17.9825 73.5878 main 1678 1658 P____P___PO_P_ SH061967 -18.0000 74.4054 16 -1 -17.0278 72.9582 99 -18.0000 74.4054 TC 16 -18.0000 74.4000 1 25 -18.0000 74.4054 TC 70 972 4 263
1966354S13089 1967 120 SI MM CLARA:ELISA 1966-12-26 18:00:00 TS -18.0000 73.4338 reunion main 1658 1637 O____O___OP_O_ jtwc_sh SH061967 -18.0000 74.3000 15 -1 -17.1000 72.8000 99 9.90000 -18.0000 74.3000 TC 15 -18.0003 74.3046 1 23 -18.0000 74.3000 TC 70 972 5 266
1966354S13089 1967 120 SI MM CLARA:ELISA 1966-12-26 21:00:00 TS -18.0097 73.1868 main 1637 1606 P____P___PP_P_ SH061967 -17.9849 74.1724 17 -1 -17.1775 72.4924 99 -17.9849 74.1724 TC 17 -18.0068 74.1431 1 20 -17.9849 74.1724 TC 72 971 5 266
1966354S13089 1967 120 SI MM CLARA:ELISA 1966-12-27 00:00:00 TS -18.0379 72.9142 reunion main 1606 1572 O____O___OP_O_ jtwc_sh SH061967 -18.0000 74.0000 20 -1 -17.3000 72.2000 99 9.90000 -18.0000 74.0000 TC 20 -18.0292 73.9458 1 18 -18.0000 74.0000 TC 75 970 6 259
1966354S13089 1967 120 SI MM CLARA:ELISA 1966-12-27 03:00:00 TS -18.1162 72.6150 main 1572 1562 P____P___PP_P_ SH061967 -18.0849 73.7450 20 -1 -17.5199 71.9924 99 -18.0849 73.7450 TC 20 -18.0769 73.6970 1 15 -18.0849 73.7450 TC 72 971 6 254
1966354S13089 1967 120 SI MM CLARA:ELISA 1966-12-27 04:00:00 TS -18.1491 72.5068 main 1562 1539 P____P___PO_P_ SH061967 -18.1224 73.6400 20 -1 -17.6091 71.9303 99 -18.1224 73.6400 TC 20 -18.1000 73.6000 1 15 -18.1224 73.6400 TC 71 971 7 253
1966354S13089 1967 120 SI MM CLARA:ELISA 1966-12-27 06:00:00 TS -18.2179 72.2749 reunion main 1539 1496 O____O___OP_O_ jtwc_sh SH061967 -18.2000 73.4000 20 -1 -17.8000 71.8000 3 9.90000 -18.2000 73.4000 TC 20 -18.1607 73.3739 1 15 -18.2000 73.4000 TC 70 972 7 256
1966354S13089 1967 120 SI MM CLARA:ELISA 1966-12-27 09:00:00 TS -18.3024 71.8797 main 1496 1452 P____P___PP_P_ SH061967 -18.2926 72.9575 17 -1 -18.0551 71.5276 3 -18.2926 72.9575 TC 17 -18.2769 72.9842 1 17 -18.2926 72.9575 TC 70 973 8 256
1966354S13089 1967 120 SI MM CLARA:ELISA 1966-12-27 12:00:00 TS -18.4066 71.4775 reunion main 1452 1406 O____O___OP_O_ jtwc_sh SH061967 -18.4000 72.5000 15 -1 -18.4000 71.3000 99 9.90000 -18.4000 72.5000 TC 15 -18.4120 72.5612 1 18 -18.4000 72.5000 TC 70 975 8 251
1966354S13089 1967 120 SI MM CLARA:ELISA 1966-12-27 15:00:00 TS -18.5557 71.1156 main 1406 1396 P____P___PP_P_ SH061967 -18.5498 72.1350 12 -1 -18.9199 71.1827 99 -18.5498 72.1350 TC 12 -18.5535 72.1365 1 19 -18.5498 72.1350 TC 65 978 7 246
1966354S13089 1967 120 SI MM CLARA:ELISA 1966-12-27 16:00:00 TS -18.6107 71.0036 main 1396 1373 P____P___PO_P_ SH061967 -18.6023 72.0225 11 -1 -19.1140 71.1723 99 -18.6023 72.0225 TC 11 -18.6000 72.0000 1 20 -18.6023 72.0225 TC 63 979 7 242
1966354S13089 1967 120 SI MM CLARA:ELISA 1966-12-27 18:00:00 TS -18.7200 70.7956 reunion main 1373 1340 O____O___OP_O_ jtwc_sh SH061967 -18.7000 71.8000 10 -1 -19.5000 71.2000 99 9.90000 -18.7000 71.8000 TC 10 -18.6804 71.7603 1 18 -18.7000 71.8000 TC 60 982 6 245
1966354S13089 1967 120 SI MM CLARA:ELISA 1966-12-27 21:00:00 TS -18.8385 70.4916 main 1340 1307 P____P___PP_P_ SH061967 -18.7999 71.4573 10 -1 -20.0226 71.3596 99 -18.7999 71.4573 TC 10 -18.8011 71.4135 1 15 -18.7999 71.4573 TC 55 984 6 250
1966354S13089 1967 120 SI MM CLARA:ELISA 1966-12-28 00:00:00 TS -18.9382 70.1746 reunion main 1307 1264 O____O___OP_O_ jtwc_sh SH061967 -18.9000 71.1000 10 -1 -20.5000 71.6000 99 9.90000 -18.9000 71.1000 TC 10 -18.9249 71.0712 1 13 -18.9000 71.1000 TC 50 987 7 254
1966354S13089 1967 120 SI MM CLARA:ELISA 1966-12-28 03:00:00 TS -19.0247 69.8127 main 1264 1254 P________PP_P_ SH061967 -19.0425 70.7075 10 -1 99 -19.0425 70.7075 TC 10 -19.0548 70.7208 1 10 -19.0425 70.7075 TC 47 989 8 262
1966354S13089 1967 120 SI MM CLARA:ELISA 1966-12-28 04:00:00 TS -19.0053 69.6349 main 1243 1221 P________PO_P_ SH061967 -19.0945 70.5721 10 -1 99 -19.0945 70.5721 TC 10 -19.1000 70.6000 1 10 -19.0945 70.5721 TC 46 989 8 261
1966354S13089 1967 120 SI MM CLARA:ELISA 1966-12-28 06:00:00 TS -19.0881 69.4056 reunion main 1221 1188 O________OP_O_ jtwc_sh SH061967 -19.2000 70.3000 10 -1 -19.2000 70.3000 TC 10 -19.2047 70.3449 1 10 -19.2000 70.3000 TC 45 991 7 250
1966354S13089 1967 120 SI MM CLARA:ELISA 1966-12-28 09:00:00 TS -19.2049 69.0635 main 1188 1145 P________PP_P_ SH061967 -19.3499 69.8999 12 -1 -19.3499 69.8999 TC 12 -19.3683 69.9496 1 10 -19.3499 69.8999 TC 45 991 7 251
1966354S13089 1967 120 SI MM CLARA:ELISA 1966-12-28 12:00:00 TS -19.3132 68.7176 reunion main 1145 1112 O________OP_O_ jtwc_sh SH061967 -19.5000 69.5000 15 -1 -19.5000 69.5000 TC 15 -19.5260 69.5445 1 10 -19.5000 69.5000 TC 45 992 7 252
1966354S13089 1967 120 SI MM CLARA:ELISA 1966-12-28 15:00:00 TS -19.4156 68.3627 main 1112 1102 P________PP_P_ SH061967 -19.6649 69.1000 15 -1 -19.6649 69.1000 TC 15 -19.6621 69.1359 1 10 -19.6649 69.1000 TC 42 992 7 254
1966354S13089 1967 120 SI MM CLARA:ELISA 1966-12-28 16:00:00 TS -19.4455 68.2432 main 1092 1069 P________PO_P_ SH061967 -19.7157 68.9667 15 -1 -19.7157 68.9667 TC 15 -19.7000 69.0000 1 10 -19.7157 68.9667 TC 41 992 7 256
1966354S13089 1967 120 SI MM CLARA:ELISA 1966-12-28 18:00:00 TS -19.4968 68.0055 reunion main 1069 1037 O________OP_O_ jtwc_sh SH061967 -19.8000 68.7000 15 -1 -19.8000 68.7000 TC 15 -19.7742 68.7439 1 10 -19.8000 68.7000 TC 40 993 7 259
1966354S13089 1967 120 SI MM CLARA:ELISA 1966-12-28 21:00:00 TS -19.5551 67.6566 main 1037 995 P________PP_P_ SH061967 -19.8799 68.3000 15 -1 -19.8799 68.3000 TC 15 -19.8608 68.3600 1 12 -19.8799 68.3000 TC 40 993 7 263
1966354S13089 1967 120 SI MM CLARA:ELISA 1966-12-29 00:00:00 TS -19.5762 67.2931 reunion main 995 954 O________OP_O_ jtwc_sh SH061967 -19.9000 67.9000 15 -1 -19.9000 67.9000 TC 15 -19.9096 67.9653 1 13 -19.9000 67.9000 TC 40 994 7 270
1966354S13089 1967 120 SI MM CLARA:ELISA 1966-12-29 03:00:00 TS -19.5575 66.9055 main 954 943 P________PP_P_ SH061967 -19.8723 67.5150 15 -1 -19.8723 67.5150 TC 15 -19.9115 67.5469 1 14 -19.8723 67.5150 TC 40 994 7 274
1966354S13089 1967 120 SI MM CLARA:ELISA 1966-12-29 04:00:00 TS -19.5433 66.7697 main 945 913 P________PO_P_ SH061967 -19.8519 67.3825 15 -1 -19.8519 67.3825 TC 15 -19.9000 67.4000 1 15 -19.8519 67.3825 TC 40 994 8 279
1966354S13089 1967 120 SI MM CLARA:ELISA 1966-12-29 06:00:00 TS -19.4913 66.4733 reunion main 913 863 O________OP_O_ jtwc_sh SH061967 -19.8000 67.1000 15 -1 -19.8000 67.1000 TC 15 -19.8536 67.1048 1 15 -19.8000 67.1000 TC 40 995 9 280
1966354S13089 1967 120 SI MM CLARA:ELISA 1966-12-29 09:00:00 TS -19.4245 66.0185 main 863 811 P________PP_P_ SH061967 -19.7149 66.6226 12 -1 -19.7149 66.6226 TC 12 -19.7400 66.6375 1 15 -19.7149 66.6226 TC 40 995 9 279
1966354S13089 1967 120 SI MM CLARA:ELISA 1966-12-29 12:00:00 TS -19.3537 65.5466 reunion main 811 771 O________OP_O_ jtwc_sh SH061967 -19.6000 66.1000 10 -1 -19.6000 66.1000 TC 10 -19.5959 66.1352 1 15 -19.6000 66.1000 TC 40 995 9 279
1966354S13089 1967 120 SI MM CLARA:ELISA 1966-12-29 15:00:00 TS -19.2854 65.0701 main 771 751 P________PP_P_ SH061967 -19.4497 65.5800 10 -1 -19.4497 65.5800 TC 10 -19.4466 65.5916 1 15 -19.4497 65.5800 TC 40 995 9 278
1966354S13089 1967 120 SI MM CLARA:ELISA 1966-12-29 16:00:00 TS -19.2646 64.9118 main 751 722 P________PO_P_ SH061967 -19.3972 65.3958 10 -1 -19.3972 65.3958 TC 10 -19.4000 65.4000 1 15 -19.3972 65.3958 TC 40 995 9 278
1966354S13089 1967 120 SI MM CLARA:ELISA 1966-12-29 18:00:00 TS -19.2242 64.5846 reunion main 722 670 O________OP_O_ jtwc_sh SH061967 -19.3000 65.0000 10 -1 -19.3000 65.0000 TC 10 -19.3180 64.9614 1 14 -19.3000 65.0000 TC 40 995 10 277
1966354S13089 1967 120 SI MM CLARA:ELISA 1966-12-29 21:00:00 TS -19.1652 64.0616 main 670 621 P________PP_P_ SH061967 -19.1852 64.3000 12 -1 -19.1852 64.3000 TC 12 -19.2007 64.2648 1 12 -19.1852 64.3000 TC 40 995 10 277
1966354S13089 1967 120 SI MM CLARA:ELISA 1966-12-30 00:00:00 TS -19.1136 63.5779 reunion main 621 580 O________OP_O_ jtwc_sh SH061967 -19.1000 63.6000 15 -1 -19.1000 63.6000 TC 15 -19.0979 63.5803 1 11 -19.1000 63.6000 TC 40 995 8 276
1966354S13089 1967 120 SI MM CLARA:ELISA 1966-12-30 03:00:00 TS -19.0801 63.1867 main 580 570 P________PP_P_ SH061967 -19.0424 62.9901 -1 -19.0424 62.9901 TC -19.0192 62.9736 1 10 -19.0424 62.9901 TC 37 995 7 275
1966354S13089 1967 120 SI MM CLARA:ELISA 1966-12-30 04:00:00 TS -19.0692 63.0736 main 570 550 P________PO_P_ SH061967 -19.0278 62.8110 -1 -19.0278 62.8110 TC -19.0000 62.8000 1 10 -19.0278 62.8110 TC 36 995 6 277
1966354S13089 1967 120 SI MM CLARA:ELISA 1966-12-30 06:00:00 TS -19.0440 62.8888 reunion main 553 523 O________OP_O_ jtwc_sh SH061967 -19.0000 62.5000 -1 -19.0000 62.5000 TC -18.9737 62.5049 1 12 -19.0000 62.5000 TC 35 996 5 283
1966354S13089 1967 120 SI MM CLARA:ELISA 1966-12-30 09:00:00 TS -18.9707 62.6312 main 523 506 P________PP_P_ SH061967 -19.0023 62.0799 -1 -18.9525 62.1574 TC -18.9601 62.1729 1 16 -18.9348 62.1325 TC 35 997 5 291
1966354S13089 1967 120 SI MM CLARA:ELISA 1966-12-30 12:00:00 TS -18.8747 62.4251 reunion main 506 500 O________OP_O_ jtwc_sh SH061967 -18.9000 61.9000 -1 -18.9000 61.9000 TC -18.9693 61.9368 1 20 -18.9000 61.9000 TC 35 998 4 302
1966354S13089 1967 120 SI MM CLARA:ELISA 1966-12-30 15:00:00 TS -18.7575 62.2634 main 500 494 P_________P_P_ SH061967 -18.5076 62.1584 -1 TC -18.9914 61.7554 1 23 -18.9300 61.7725 TC 32 998 4 312
1966354S13089 1967 120 SI MM CLARA:ELISA 1966-12-30 16:00:00 TS -18.7014 62.2208 main 494 489 P_________O_P_ SH061967 -18.3574 62.2691 -1 TC -19.0000 61.7000 1 25 -18.9509 61.7450 TC 31 998 5 320
1966354S13089 1967 120 SI MM CLARA:ELISA 1966-12-30 18:00:00 TS -18.5800 62.1050 reunion main 489 470 O___________O_ jtwc_sh SH071967 -18.1000 62.4000 -1 1 -19.0000 61.7000 TC 30 999 5 305
1966354S13089 1967 120 SI MM CLARA:ELISA 1966-12-30 21:00:00 TS -18.4491 61.8392 main 470 441 P_____________ SH071967 -17.9476 62.1398 -1 1 TC 6 292
1966354S13089 1967 120 SI MM CLARA:ELISA 1966-12-31 00:00:00 TS -18.3623 61.5342 reunion main 441 419 O_____________ jtwc_sh SH071967 -17.9000 61.7000 -1 1 6 286
1966354S13089 1967 120 SI MM CLARA:ELISA 1966-12-31 03:00:00 TS -18.2802 61.2373 main 419 391 P_____________ SH071967 -17.8423 61.3651 -1 1 6 281
1966354S13089 1967 120 SI MM CLARA:ELISA 1966-12-31 06:00:00 TS -18.2500 60.9000 reunion main 397 362 O_____________ jtwc_sh SH071967 -17.8000 61.0000 -1 7 276
1966354S13089 1967 120 SI MM CLARA:ELISA 1966-12-31 09:00:00 TS -18.2094 60.5218 main 362 329 P_____________ SH071967 -17.7425 60.5575 -1 7 275
1966354S13089 1967 120 SI MM CLARA:ELISA 1966-12-31 12:00:00 TS -18.1801 60.1319 reunion main 329 306 O_____________ jtwc_sh SH071967 -17.7000 60.1000 -1 7 273
1966354S13089 1967 120 SI MM CLARA:ELISA 1966-12-31 15:00:00 TS -18.1719 59.7535 main 306 277 P_____________ SH071967 -17.6925 59.6776 -1 7 270
1966354S13089 1967 120 SI MM CLARA:ELISA 1966-12-31 18:00:00 TS -18.1750 59.4000 reunion main 277 258 O_____________ jtwc_sh SH071967 -17.7000 59.3000 -1 6 270
1966354S13089 1967 120 SI MM CLARA:ELISA 1966-12-31 21:00:00 TS -18.1697 59.0783 main 258 251 P_____________ SH071967 -17.6924 58.9775 -1 6 279
1966354S13089 1967 120 SI MM CLARA:ELISA 1967-01-01 00:00:00 TS -18.0812 58.7733 reunion main 251 247 O_____________ jtwc_sh SH071967 -17.7000 58.7000 -1 6 287
1966354S13089 1967 120 SI MM CLARA:ELISA 1967-01-01 03:00:00 TS -18.0022 58.4945 main 249 243 P_____________ SH071967 -17.7350 58.4350 -1 5 286
1966354S13089 1967 120 SI MM CLARA:ELISA 1967-01-01 06:00:00 TS -17.9385 58.2385 reunion main 251 248 O_____________ jtwc_sh SH071967 -17.8000 58.2000 -1 5 283
1966354S13089 1967 120 SI MM CLARA:ELISA 1967-01-01 09:00:00 TS -17.8914 57.9820 main 248 235 P_____________ SH071967 -17.8850 57.9850 -1 4 260
1966354S13089 1967 120 SI MM CLARA:ELISA 1967-01-01 12:00:00 TS -18.0116 57.7943 main 235 212 O_____________ jtwc_sh SH071967 -18.0000 57.8000 -1 4 231
1966354S13089 1967 120 SI MM CLARA:ELISA 1967-01-01 15:00:00 TS -18.1627 57.6260 main 212 201 P_____________ SH071967 -18.1575 57.6275 -1 4 224
1966354S13089 1967 120 SI MM CLARA:ELISA 1967-01-01 18:00:00 TS -18.3000 57.5000 main 201 190 O_____________ jtwc_sh SH071967 -18.3000 57.5000 -1 3 223
1966354S13089 1967 120 SI MM CLARA:ELISA 1967-01-01 21:00:00 TS -18.3640 57.4320 main 190 190 P_____________ SH071967 -18.3575 57.4349 -1 2 220
1966354S13089 1967 120 SI MM CLARA:ELISA 1967-01-02 00:00:00 TS -18.4141 57.3949 main 190 179 O_____________ jtwc_sh SH071967 -18.4000 57.4000 -1 1 209
1966354S13089 1967 120 SI MM CLARA:ELISA 1967-01-02 03:00:00 TS -18.4938 57.3553 main 179 169 P_____________ SH071967 -18.4850 57.3575 -1 2 205
1966354S13089 1967 120 SI MM CLARA:ELISA 1967-01-02 06:00:00 TS -18.6000 57.3000 main 169 158 O_____________ jtwc_sh SH071967 -18.6000 57.3000 -1 3 208
1966354S13089 1967 120 SI MM CLARA:ELISA 1967-01-02 09:00:00 TS -18.7348 57.2141 main 159 140 P_____________ SH071967 -18.7425 57.2150 -1 3 213
1966354S13089 1967 120 SI MM CLARA:ELISA 1967-01-02 12:00:00 TS -18.8884 57.0976 main 140 133 O_____________ jtwc_sh SH071967 -18.9000 57.1000 -1 4 218
1966354S13089 1967 120 SI MM CLARA:ELISA 1967-01-02 15:00:00 TS -19.0445 56.9557 main 133 124 P_____________ SH071967 -19.0525 56.9576 -1 4 222
1966354S13089 1967 120 SI MM CLARA:ELISA 1967-01-02 18:00:00 TS -19.2000 56.8000 main 124 O_____________ jtwc_sh SH071967 -19.2000 56.8000 -1 4 223

About IBTrACS Database

This database is a web-friendly format of International Best Track Archive for Climate Stewardship (IBTrACS), a global best track data archive curated by NOAA dating back to 1842.

Updated: 2021-11-26